RYR2402 EPWA-LJLJ
Flight info
| Callsign | RYR2402 |
|---|---|
| Flight time | N/A |
| Altitude | 38000 |
| Route | EVINA N744 TUSIN DCT MIKOV DCT RADLY DCT OFROZ |
| Aircraft | B38M/M-SDE1FGHILORVWXY/HB1 |
Departure
| Time | 2026-05-01 14:29 |
|---|---|
| Airport | Warsaw Chopin Airport (EPWA) |
Arrival
| Time | N/A |
|---|---|
| Airport | Ljubljana Jože Pučnik Airport (LJLJ) |
| Time | Latitude | Longitude | Altitude | Speed | Heading |
|---|---|---|---|---|---|
| 2026-05-01 14:08 | 52.17145 | 20.97000 | 340 ft | 0 kts | 62° |
| 2026-05-01 14:20 | 52.17142 | 20.96989 | 340 ft | 2 kts | 65° |
| 2026-05-01 14:20 | 52.17133 | 20.96941 | 335 ft | 2 kts | 346° |
| 2026-05-01 14:20 | 52.17129 | 20.96941 | 335 ft | 2 kts | 293° |
| 2026-05-01 14:21 | 52.17131 | 20.96947 | 334 ft | 0 kts | 141° |
| 2026-05-01 14:22 | 52.17130 | 20.96947 | 334 ft | 0 kts | 141° |
| 2026-05-01 14:24 | 52.17130 | 20.96948 | 340 ft | 0 kts | 141° |
| 2026-05-01 14:24 | 52.17123 | 20.96954 | 336 ft | 0 kts | 161° |
| 2026-05-01 14:24 | 52.17103 | 20.96962 | 338 ft | 6 kts | 164° |
| 2026-05-01 14:24 | 52.17038 | 20.96968 | 339 ft | 13 kts | 179° |
| 2026-05-01 14:25 | 52.16939 | 20.97030 | 338 ft | 18 kts | 152° |
| 2026-05-01 14:25 | 52.16808 | 20.97145 | 339 ft | 24 kts | 152° |
| 2026-05-01 14:25 | 52.16641 | 20.97288 | 340 ft | 30 kts | 152° |
| 2026-05-01 14:25 | 52.16549 | 20.97457 | 337 ft | 21 kts | 114° |
| 2026-05-01 14:26 | 52.16482 | 20.97701 | 335 ft | 26 kts | 114° |
| 2026-05-01 14:26 | 52.16356 | 20.97758 | 340 ft | 13 kts | 208° |
| 2026-05-01 14:26 | 52.16299 | 20.97674 | 336 ft | 6 kts | 272° |
| 2026-05-01 14:27 | 52.16318 | 20.97622 | 334 ft | 5 kts | 297° |
| 2026-05-01 14:27 | 52.16319 | 20.97621 | 334 ft | 0 kts | 297° |
| 2026-05-01 14:28 | 52.16329 | 20.97585 | 334 ft | 13 kts | 294° |
| 2026-05-01 14:28 | 52.16441 | 20.97186 | 337 ft | 70 kts | 294° |
| 2026-05-01 14:28 | 52.16725 | 20.96168 | 351 ft | 124 kts | 295° |
| 2026-05-01 14:29 | 52.17143 | 20.94716 | 461 ft | 156 kts | 296° |
| 2026-05-01 14:29 | 52.17562 | 20.93083 | 1030 ft | 158 kts | 294° |
| 2026-05-01 14:30 | 52.17849 | 20.87246 | 2443 ft | 195 kts | 262° |
| 2026-05-01 14:30 | 52.17561 | 20.85003 | 2616 ft | 209 kts | 260° |
| 2026-05-01 14:30 | 52.17243 | 20.82644 | 2866 ft | 225 kts | 261° |
| 2026-05-01 14:31 | 52.16536 | 20.77311 | 3777 ft | 257 kts | 260° |
| 2026-05-01 14:31 | 52.16180 | 20.74646 | 4337 ft | 265 kts | 261° |
| 2026-05-01 14:31 | 52.15756 | 20.72089 | 4935 ft | 271 kts | 247° |
| 2026-05-01 14:31 | 52.14595 | 20.69634 | 5607 ft | 279 kts | 222° |
| 2026-05-01 14:32 | 52.13056 | 20.67626 | 6270 ft | 286 kts | 218° |
| 2026-05-01 14:32 | 52.11453 | 20.65663 | 6878 ft | 291 kts | 218° |
| 2026-05-01 14:32 | 52.09829 | 20.63637 | 7482 ft | 296 kts | 219° |
| 2026-05-01 14:32 | 52.08193 | 20.61550 | 8080 ft | 301 kts | 219° |
| 2026-05-01 14:33 | 52.06527 | 20.59433 | 8695 ft | 306 kts | 219° |
| 2026-05-01 14:33 | 52.04825 | 20.57288 | 9306 ft | 311 kts | 219° |
| 2026-05-01 14:33 | 52.03121 | 20.55144 | 9919 ft | 316 kts | 219° |
| 2026-05-01 14:33 | 52.01368 | 20.52936 | 10493 ft | 322 kts | 219° |
| 2026-05-01 14:34 | 51.99570 | 20.50671 | 10894 ft | 333 kts | 219° |
| 2026-05-01 14:34 | 51.97699 | 20.48317 | 11177 ft | 348 kts | 219° |
| 2026-05-01 14:34 | 51.95726 | 20.45897 | 11466 ft | 362 kts | 213° |
| 2026-05-01 14:34 | 51.93394 | 20.44336 | 11921 ft | 368 kts | 188° |
| 2026-05-01 14:35 | 51.90840 | 20.43783 | 12424 ft | 372 kts | 183° |
| 2026-05-01 14:35 | 51.88242 | 20.43450 | 12959 ft | 377 kts | 181° |
| 2026-05-01 14:35 | 51.85609 | 20.43125 | 13504 ft | 382 kts | 182° |
| 2026-05-01 14:35 | 51.82952 | 20.42702 | 14058 ft | 386 kts | 183° |
| 2026-05-01 14:36 | 51.80263 | 20.42252 | 14558 ft | 390 kts | 182° |
| 2026-05-01 14:36 | 51.77550 | 20.41840 | 15048 ft | 393 kts | 182° |
| 2026-05-01 14:36 | 51.74806 | 20.41442 | 15543 ft | 396 kts | 182° |
| 2026-05-01 14:36 | 51.72046 | 20.41026 | 16042 ft | 400 kts | 182° |
| 2026-05-01 14:37 | 51.69305 | 20.40601 | 16543 ft | 403 kts | 182° |
| 2026-05-01 14:37 | 51.66499 | 20.40173 | 17030 ft | 406 kts | 182° |
| 2026-05-01 14:37 | 51.63678 | 20.39750 | 17526 ft | 409 kts | 182° |
| 2026-05-01 14:37 | 51.60835 | 20.39322 | 18013 ft | 412 kts | 182° |
| 2026-05-01 14:38 | 51.57969 | 20.38887 | 18496 ft | 415 kts | 182° |
| 2026-05-01 14:38 | 51.55077 | 20.38449 | 18921 ft | 418 kts | 182° |
| 2026-05-01 14:38 | 51.52174 | 20.38012 | 19334 ft | 421 kts | 182° |
| 2026-05-01 14:38 | 51.49251 | 20.37573 | 19748 ft | 423 kts | 182° |
| 2026-05-01 14:39 | 51.46299 | 20.37129 | 20165 ft | 426 kts | 182° |
| 2026-05-01 14:39 | 51.43339 | 20.36684 | 20582 ft | 428 kts | 182° |
| 2026-05-01 14:39 | 51.40383 | 20.36002 | 20987 ft | 433 kts | 193° |
| 2026-05-01 14:39 | 51.37597 | 20.34264 | 21395 ft | 438 kts | 208° |
| 2026-05-01 14:40 | 51.35057 | 20.31539 | 21803 ft | 441 kts | 217° |
| 2026-05-01 14:40 | 51.32603 | 20.28574 | 22197 ft | 443 kts | 218° |
| 2026-05-01 14:40 | 51.30146 | 20.25555 | 22586 ft | 446 kts | 218° |
| 2026-05-01 14:40 | 51.27665 | 20.22556 | 22980 ft | 448 kts | 217° |
| 2026-05-01 14:41 | 51.25158 | 20.19570 | 23358 ft | 451 kts | 217° |
| 2026-05-01 14:41 | 51.22644 | 20.16560 | 23726 ft | 453 kts | 217° |
| 2026-05-01 14:41 | 51.20120 | 20.13519 | 24048 ft | 456 kts | 217° |
| 2026-05-01 14:41 | 51.17578 | 20.10465 | 24347 ft | 459 kts | 217° |
| 2026-05-01 14:42 | 51.15019 | 20.07410 | 24640 ft | 461 kts | 216° |
| 2026-05-01 14:42 | 51.12440 | 20.04335 | 24949 ft | 463 kts | 216° |
| 2026-05-01 14:42 | 51.09887 | 20.01289 | 25242 ft | 465 kts | 216° |
| 2026-05-01 14:42 | 51.07289 | 19.98196 | 25533 ft | 468 kts | 216° |
| 2026-05-01 14:43 | 51.04673 | 19.95097 | 25819 ft | 470 kts | 216° |
| 2026-05-01 14:43 | 51.02042 | 19.91987 | 26116 ft | 472 kts | 216° |
| 2026-05-01 14:43 | 50.99405 | 19.88866 | 26387 ft | 474 kts | 216° |
| 2026-05-01 14:43 | 50.96759 | 19.85733 | 26662 ft | 476 kts | 216° |
| 2026-05-01 14:44 | 50.94093 | 19.82582 | 26941 ft | 478 kts | 216° |
| 2026-05-01 14:44 | 50.88734 | 19.76272 | 27481 ft | 482 kts | 216° |
| 2026-05-01 14:44 | 50.86037 | 19.73100 | 27751 ft | 484 kts | 216° |
| 2026-05-01 14:45 | 50.83331 | 19.69921 | 28027 ft | 485 kts | 216° |
| 2026-05-01 14:45 | 50.77914 | 19.63577 | 28531 ft | 489 kts | 215° |
| 2026-05-01 14:45 | 50.75138 | 19.60333 | 28789 ft | 491 kts | 215° |
| 2026-05-01 14:46 | 50.72420 | 19.57160 | 29030 ft | 493 kts | 215° |
| 2026-05-01 14:46 | 50.66879 | 19.50708 | 29526 ft | 497 kts | 215° |
| 2026-05-01 14:46 | 50.64095 | 19.47474 | 29767 ft | 498 kts | 215° |
| 2026-05-01 14:47 | 50.61298 | 19.44229 | 29978 ft | 500 kts | 215° |
| 2026-05-01 14:47 | 50.58485 | 19.40969 | 30239 ft | 501 kts | 215° |
| 2026-05-01 14:47 | 50.55671 | 19.37716 | 30459 ft | 503 kts | 215° |
| 2026-05-01 14:48 | 50.50013 | 19.31187 | 30882 ft | 506 kts | 216° |
| 2026-05-01 14:48 | 50.47171 | 19.27915 | 31077 ft | 507 kts | 216° |
| 2026-05-01 14:48 | 50.41462 | 19.21357 | 31489 ft | 510 kts | 216° |
| 2026-05-01 14:49 | 50.36692 | 19.15894 | 31825 ft | 512 kts | 216° |
| 2026-05-01 14:49 | 50.30918 | 19.09300 | 32223 ft | 515 kts | 216° |
| 2026-05-01 14:50 | 50.26092 | 19.03802 | 32551 ft | 517 kts | 216° |
| 2026-05-01 14:50 | 50.19285 | 18.96073 | 33177 ft | 517 kts | 216° |
| 2026-05-01 14:51 | 50.16376 | 18.92778 | 33456 ft | 516 kts | 216° |
| 2026-05-01 14:51 | 50.10560 | 18.86207 | 34000 ft | 516 kts | 216° |
| 2026-05-01 14:52 | 50.04783 | 18.79700 | 34494 ft | 516 kts | 216° |
| 2026-05-01 14:52 | 50.01874 | 18.76430 | 34742 ft | 516 kts | 216° |
| 2026-05-01 14:52 | 49.96066 | 18.69917 | 35223 ft | 515 kts | 216° |
| 2026-05-01 14:53 | 49.93151 | 18.66656 | 35474 ft | 514 kts | 216° |
| 2026-05-01 14:53 | 49.90248 | 18.63413 | 35724 ft | 514 kts | 216° |
| 2026-05-01 14:53 | 49.87352 | 18.60183 | 35976 ft | 513 kts | 216° |
| 2026-05-01 14:53 | 49.84583 | 18.56689 | 36201 ft | 511 kts | 227° |
| 2026-05-01 14:54 | 49.82251 | 18.52563 | 36457 ft | 508 kts | 233° |
| 2026-05-01 14:54 | 49.80025 | 18.48322 | 36695 ft | 507 kts | 233° |
| 2026-05-01 14:54 | 49.77813 | 18.44076 | 36912 ft | 507 kts | 233° |
| 2026-05-01 14:54 | 49.75582 | 18.39841 | 37120 ft | 507 kts | 233° |
| 2026-05-01 14:55 | 49.73343 | 18.35634 | 37336 ft | 507 kts | 233° |
| 2026-05-01 14:55 | 49.71101 | 18.31407 | 37517 ft | 507 kts | 233° |
| 2026-05-01 14:55 | 49.68871 | 18.27185 | 37740 ft | 506 kts | 233° |
| 2026-05-01 14:55 | 49.66671 | 18.23032 | 37958 ft | 505 kts | 233° |
| 2026-05-01 14:56 | 49.64436 | 18.18838 | 38187 ft | 505 kts | 232° |
| 2026-05-01 14:56 | 49.62206 | 18.14661 | 38315 ft | 502 kts | 233° |
| 2026-05-01 14:56 | 49.60005 | 18.10533 | 38308 ft | 494 kts | 233° |
| 2026-05-01 14:57 | 49.55687 | 18.02454 | 38305 ft | 485 kts | 233° |
| 2026-05-01 14:57 | 49.49275 | 17.90510 | 38307 ft | 481 kts | 232° |
| 2026-05-01 14:58 | 49.45000 | 17.82578 | 38302 ft | 480 kts | 232° |
| 2026-05-01 14:58 | 49.40730 | 17.74676 | 38290 ft | 480 kts | 232° |
| 2026-05-01 14:59 | 49.36480 | 17.66836 | 38291 ft | 480 kts | 232° |
| 2026-05-01 14:59 | 49.32203 | 17.58971 | 38296 ft | 480 kts | 232° |
| 2026-05-01 15:00 | 49.25758 | 17.47160 | 38296 ft | 482 kts | 232° |
| 2026-05-01 15:01 | 49.21447 | 17.39292 | 38299 ft | 482 kts | 232° |
| 2026-05-01 15:01 | 49.17133 | 17.31439 | 38300 ft | 482 kts | 232° |
| 2026-05-01 15:02 | 49.12808 | 17.23591 | 38300 ft | 482 kts | 232° |
| 2026-05-01 15:02 | 49.08502 | 17.15799 | 38304 ft | 483 kts | 232° |
| 2026-05-01 15:03 | 49.04156 | 17.07960 | 38304 ft | 484 kts | 232° |
| 2026-05-01 15:03 | 48.99809 | 17.00141 | 38305 ft | 484 kts | 232° |
| 2026-05-01 15:04 | 48.95453 | 16.92330 | 38309 ft | 484 kts | 232° |
| 2026-05-01 15:04 | 48.91100 | 16.84546 | 38310 ft | 482 kts | 231° |
| 2026-05-01 15:05 | 48.86744 | 16.76780 | 38304 ft | 482 kts | 231° |
| 2026-05-01 15:05 | 48.82413 | 16.69082 | 38308 ft | 482 kts | 231° |
| 2026-05-01 15:06 | 48.77814 | 16.61698 | 38379 ft | 483 kts | 213° |
| 2026-05-01 15:06 | 48.74815 | 16.59380 | 38345 ft | 486 kts | 201° |
| 2026-05-01 15:06 | 48.71690 | 16.57450 | 38325 ft | 486 kts | 201° |
| 2026-05-01 15:07 | 48.65534 | 16.53189 | 38329 ft | 487 kts | 205° |
| 2026-05-01 15:07 | 48.59375 | 16.48939 | 38333 ft | 486 kts | 202° |
| 2026-05-01 15:08 | 48.53203 | 16.44753 | 38328 ft | 486 kts | 204° |
| 2026-05-01 15:08 | 48.47038 | 16.40510 | 38333 ft | 486 kts | 203° |
| 2026-05-01 15:09 | 48.40895 | 16.36356 | 38340 ft | 486 kts | 204° |
| 2026-05-01 15:09 | 48.34726 | 16.32149 | 38336 ft | 487 kts | 203° |
| 2026-05-01 15:10 | 48.28530 | 16.27966 | 38329 ft | 488 kts | 204° |
| 2026-05-01 15:10 | 48.19236 | 16.21688 | 38346 ft | 488 kts | 203° |
| 2026-05-01 15:11 | 48.09960 | 16.15454 | 38344 ft | 491 kts | 203° |
| 2026-05-01 15:12 | 48.03721 | 16.11274 | 38346 ft | 491 kts | 203° |
| 2026-05-01 15:12 | 47.94363 | 16.05027 | 38348 ft | 491 kts | 203° |
| 2026-05-01 15:14 | 47.78799 | 15.94690 | 38360 ft | 490 kts | 203° |
| 2026-05-01 15:14 | 47.69441 | 15.88507 | 38262 ft | 489 kts | 203° |
| 2026-05-01 15:15 | 47.63190 | 15.84391 | 37171 ft | 492 kts | 203° |
| 2026-05-01 15:15 | 47.56958 | 15.80298 | 35941 ft | 495 kts | 202° |
| 2026-05-01 15:16 | 47.50634 | 15.76155 | 34662 ft | 499 kts | 202° |
| 2026-05-01 15:16 | 47.44256 | 15.71989 | 33263 ft | 502 kts | 202° |
| 2026-05-01 15:17 | 47.37860 | 15.67821 | 31845 ft | 503 kts | 202° |
| 2026-05-01 15:18 | 47.28238 | 15.61572 | 29677 ft | 502 kts | 202° |
| 2026-05-01 15:18 | 47.25090 | 15.59535 | 28975 ft | 498 kts | 202° |
| 2026-05-01 15:19 | 47.15651 | 15.53436 | 26909 ft | 490 kts | 202° |
| 2026-05-01 15:19 | 47.09428 | 15.49429 | 25529 ft | 486 kts | 202° |
| 2026-05-01 15:19 | 47.06334 | 15.47440 | 24857 ft | 483 kts | 202° |
| 2026-05-01 15:20 | 47.00199 | 15.43505 | 23465 ft | 479 kts | 201° |
| 2026-05-01 15:20 | 46.97158 | 15.41558 | 22791 ft | 474 kts | 201° |
| 2026-05-01 15:20 | 46.94152 | 15.39636 | 22138 ft | 469 kts | 201° |
| 2026-05-01 15:21 | 46.91213 | 15.37759 | 21506 ft | 465 kts | 202° |
| 2026-05-01 15:21 | 46.88251 | 15.35869 | 20862 ft | 461 kts | 202° |
| 2026-05-01 15:21 | 46.85325 | 15.34005 | 20228 ft | 457 kts | 202° |
| 2026-05-01 15:21 | 46.82416 | 15.32154 | 19593 ft | 454 kts | 202° |
| 2026-05-01 15:22 | 46.76687 | 15.28515 | 18332 ft | 447 kts | 202° |
| 2026-05-01 15:22 | 46.73850 | 15.26715 | 17710 ft | 442 kts | 202° |
| 2026-05-01 15:22 | 46.71039 | 15.24935 | 17108 ft | 437 kts | 202° |
| 2026-05-01 15:23 | 46.68262 | 15.23177 | 16509 ft | 432 kts | 202° |
| 2026-05-01 15:23 | 46.65517 | 15.21443 | 15922 ft | 428 kts | 202° |
| 2026-05-01 15:23 | 46.62795 | 15.19734 | 15330 ft | 424 kts | 201° |
| 2026-05-01 15:23 | 46.60079 | 15.18086 | 14765 ft | 420 kts | 201° |
| 2026-05-01 15:24 | 46.57384 | 15.16468 | 14198 ft | 417 kts | 201° |
| 2026-05-01 15:24 | 46.54718 | 15.14843 | 13606 ft | 412 kts | 201° |
| 2026-05-01 15:24 | 46.52068 | 15.13217 | 12750 ft | 414 kts | 201° |
| 2026-05-01 15:24 | 46.49434 | 15.11611 | 12192 ft | 407 kts | 201° |
| 2026-05-01 15:25 | 46.46832 | 15.10035 | 11584 ft | 404 kts | 201° |
| 2026-05-01 15:25 | 46.44283 | 15.08492 | 11065 ft | 399 kts | 202° |
| 2026-05-01 15:25 | 46.41765 | 15.06961 | 10857 ft | 385 kts | 201° |
| 2026-05-01 15:25 | 46.39336 | 15.05487 | 10700 ft | 372 kts | 201° |
| 2026-05-01 15:26 | 46.36987 | 15.04066 | 10548 ft | 360 kts | 201° |
| 2026-05-01 15:26 | 46.34695 | 15.02683 | 10201 ft | 355 kts | 201° |
| 2026-05-01 15:26 | 46.32424 | 15.01311 | 9783 ft | 351 kts | 201° |
| 2026-05-01 15:26 | 46.30284 | 14.99689 | 9445 ft | 346 kts | 212° |
| 2026-05-01 15:27 | 46.28294 | 14.97713 | 8921 ft | 344 kts | 216° |
| 2026-05-01 15:27 | 46.26452 | 14.95754 | 8480 ft | 314 kts | 216° |
| 2026-05-01 15:27 | 46.24749 | 14.93995 | 8115 ft | 285 kts | 214° |
| 2026-05-01 15:28 | 46.21640 | 14.90901 | 7414 ft | 264 kts | 215° |
| 2026-05-01 15:28 | 46.20143 | 14.89383 | 7067 ft | 261 kts | 215° |
| 2026-05-01 15:28 | 46.18663 | 14.87884 | 6714 ft | 259 kts | 215° |
| 2026-05-01 15:29 | 46.15752 | 14.84950 | 6008 ft | 254 kts | 214° |
| 2026-05-01 15:29 | 46.14299 | 14.83487 | 5679 ft | 256 kts | 214° |
| 2026-05-01 15:29 | 46.11417 | 14.80585 | 4992 ft | 249 kts | 214° |
| 2026-05-01 15:30 | 46.09083 | 14.78177 | 4420 ft | 248 kts | 222° |
| 2026-05-01 15:31 | 46.10162 | 14.69601 | 3999 ft | 214 kts | 309° |
| 2026-05-01 15:31 | 46.11953 | 14.66104 | 4011 ft | 220 kts | 310° |
| 2026-05-01 15:32 | 46.13778 | 14.62541 | 3752 ft | 207 kts | 309° |
| 2026-05-01 15:32 | 46.15271 | 14.59598 | 3237 ft | 161 kts | 310° |
| 2026-05-01 15:33 | 46.17126 | 14.55995 | 2571 ft | 149 kts | 310° |
| 2026-05-01 15:34 | 46.18942 | 14.52453 | 1845 ft | 147 kts | 308° |